Time;durP1;ratioP1;P1;durP2;ratioP2;P2;SDS_P1;SDS_P2;PMS_P1;PMS_P2;Temp;Humidity;BMP_temperature;BMP_pressure;BME280_temperature;BME280_humidity;BME280_pressure;Samples;Min_cycle;Max_cycle;Signal;HPM_P1;HPM_P2
2024/01/13 00:00:52;;;;;;;0.00;0.00;;;6.30;70.30;;;;;;5083416;28;20226;-25
2024/01/13 00:03:20;;;;;;;0.00;0.00;;;6.20;70.10;;;;;;5082712;28;20206;-25
2024/01/13 00:05:47;;;;;;;0.00;0.00;;;6.20;70.10;;;;;;5082360;28;20239;-25
2024/01/13 00:08:14;;;;;;;0.00;0.00;;;6.20;70.10;;;;;;5080077;28;20227;-25
2024/01/13 00:10:58;;;;;;;0.00;0.00;;;6.20;70.10;;;;;;5082435;28;20633;-25
2024/01/13 00:13:26;;;;;;;0.00;0.00;;;6.20;70.20;;;;;;5081032;28;20199;-25
2024/01/13 00:15:55;;;;;;;0.00;0.00;;;6.20;70.30;;;;;;5083889;28;20613;-25
2024/01/13 00:18:22;;;;;;;0.00;0.00;;;6.20;70.40;;;;;;5083276;28;20234;-25
2024/01/13 00:21:07;;;;;;;0.00;0.00;;;6.20;70.40;;;;;;5081776;28;20202;-25
2024/01/13 00:23:38;;;;;;;0.00;0.00;;;6.20;70.40;;;;;;5084435;28;20222;-25
2024/01/13 00:26:06;;;;;;;0.00;0.00;;;6.20;70.40;;;;;;5087686;28;20268;-26
2024/01/13 00:28:36;;;;;;;0.00;0.00;;;6.30;70.40;;;;;;5066841;28;20306;-26
2024/01/13 00:31:06;;;;;;;0.00;0.00;;;6.20;70.40;;;;;;5069858;28;20203;-26
2024/01/13 00:33:35;;;;;;;0.00;0.00;;;6.30;70.40;;;;;;5089648;28;20207;-26
2024/01/13 00:36:06;;;;;;;0.00;0.00;;;6.30;70.40;;;;;;5087863;28;20215;-26
2024/01/13 00:38:36;;;;;;;0.00;0.00;;;6.30;70.30;;;;;;5087934;28;20242;-26
2024/01/13 00:41:05;;;;;;;0.00;0.00;;;6.20;70.20;;;;;;5085948;28;20225;-27
2024/01/13 00:43:34;;;;;;;0.00;0.00;;;6.20;70.30;;;;;;5086813;28;20238;-26
2024/01/13 00:46:02;;;;;;;0.00;0.00;;;6.20;70.20;;;;;;5085037;28;20252;-26
2024/01/13 00:48:30;;;;;;;0.00;0.00;;;6.20;70.20;;;;;;5080766;28;20219;-26
2024/01/13 00:51:11;;;;;;;0.00;0.00;;;6.20;70.30;;;;;;5088418;28;20206;-26
2024/01/13 00:53:46;;;;;;;0.00;0.00;;;6.20;70.30;;;;;;5087717;28;20195;-27
2024/01/13 00:56:13;;;;;;;0.00;0.00;;;6.20;70.40;;;;;;5075266;28;20271;-27
2024/01/13 00:58:43;;;;;;;0.00;0.00;;;6.20;70.40;;;;;;5085414;28;20327;-27
2024/01/13 01:01:15;;;;;;;0.00;0.00;;;6.20;70.40;;;;;;5083063;28;20227;-27
2024/01/13 01:03:47;;;;;;;0.00;0.00;;;6.20;70.40;;;;;;5086589;28;20198;-27
2024/01/13 01:06:16;;;;;;;0.00;0.00;;;6.20;70.40;;;;;;5077543;28;20246;-27
2024/01/13 01:08:44;;;;;;;0.00;0.00;;;6.20;70.40;;;;;;5086153;28;20234;-27
2024/01/13 01:11:11;;;;;;;0.00;0.00;;;6.20;70.40;;;;;;5088137;28;20829;-27
2024/01/13 01:13:39;;;;;;;0.00;0.00;;;6.20;70.40;;;;;;5088610;28;20198;-27
2024/01/13 01:16:07;;;;;;;0.00;0.00;;;6.20;70.40;;;;;;5084315;28;20285;-27
2024/01/13 01:18:34;;;;;;;0.00;0.00;;;6.20;70.50;;;;;;5090595;28;20213;-37
2024/01/13 01:21:17;;;;;;;0.00;0.00;;;6.20;70.40;;;;;;5087258;28;20207;-36
2024/01/13 01:23:47;;;;;;;0.00;0.00;;;6.20;70.40;;;;;;5088891;28;20203;-36
2024/01/13 01:26:15;;;;;;;0.00;0.00;;;6.20;70.40;;;;;;5090261;28;20206;-36
2024/01/13 01:28:42;;;;;;;0.00;0.00;;;6.20;70.40;;;;;;5090780;28;20237;-36
2024/01/13 01:31:12;;;;;;;0.00;0.00;;;6.20;70.50;;;;;;5072646;28;20224;-36
2024/01/13 01:33:41;;;;;;;0.00;0.00;;;6.20;70.50;;;;;;5089460;28;20608;-36
2024/01/13 01:36:11;;;;;;;0.00;0.00;;;6.20;70.40;;;;;;5090384;28;20198;-36
2024/01/13 01:38:39;;;;;;;0.00;0.00;;;6.20;70.40;;;;;;5085009;28;20704;-36
2024/01/13 01:41:14;;;;;;;0.00;0.00;;;6.20;70.40;;;;;;5082262;28;20196;-36
2024/01/13 01:43:47;;;;;;;0.00;0.00;;;6.20;70.50;;;;;;5080717;28;20213;-36
2024/01/13 01:46:19;;;;;;;0.00;0.00;;;6.20;71.30;;;;;;5087252;28;20215;-37
2024/01/13 01:48:56;;;;;;;0.00;0.00;;;6.20;70.50;;;;;;5081769;28;20219;-37
2024/01/13 01:51:28;;;;;;;0.00;0.00;;;6.20;70.50;;;;;;5081885;28;20293;-36
2024/01/13 01:53:58;;;;;;;0.00;0.00;;;6.20;70.50;;;;;;5084716;28;20226;-36
2024/01/13 01:56:28;;;;;;;0.00;0.00;;;6.20;70.50;;;;;;5081958;28;20322;-37
2024/01/13 01:58:56;;;;;;;0.00;0.00;;;6.20;70.50;;;;;;5079483;28;20699;-36
2024/01/13 02:01:31;;;;;;;0.00;0.00;;;6.20;70.40;;;;;;5085204;28;20267;-36
2024/01/13 02:04:03;;;;;;;0.00;0.00;;;6.20;70.50;;;;;;5078357;28;20257;-37
2024/01/13 02:06:31;;;;;;;0.00;0.00;;;6.20;70.40;;;;;;5074450;28;20263;-36
2024/01/13 02:09:02;;;;;;;0.00;0.00;;;6.20;70.40;;;;;;5084587;28;20589;-36
2024/01/13 02:11:30;;;;;;;0.00;0.00;;;6.20;70.40;;;;;;5087649;28;20551;-37
2024/01/13 02:14:01;;;;;;;0.00;0.00;;;6.20;70.50;;;;;;5079234;28;20729;-36
2024/01/13 02:16:29;;;;;;;0.00;0.00;;;6.20;70.50;;;;;;5087008;28;20206;-36
2024/01/13 02:18:56;;;;;;;0.00;0.00;;;6.20;70.50;;;;;;5074550;28;20239;-37
2024/01/13 02:21:24;;;;;;;0.00;0.00;;;6.20;70.50;;;;;;5086315;28;20210;-36
2024/01/13 02:23:51;;;;;;;0.00;0.00;;;6.20;70.60;;;;;;5078042;28;20207;-37
2024/01/13 02:26:18;;;;;;;0.00;0.00;;;6.20;70.50;;;;;;5082614;28;20300;-37
2024/01/13 02:28:48;;;;;;;0.00;0.00;;;6.20;70.60;;;;;;5081370;28;20242;-37
2024/01/13 02:31:16;;;;;;;0.00;0.00;;;6.20;70.50;;;;;;5075579;28;20895;-36
2024/01/13 02:33:49;;;;;;;0.00;0.00;;;6.20;70.60;;;;;;5077304;28;20286;-37
2024/01/13 02:36:17;;;;;;;0.00;0.00;;;6.20;70.60;;;;;;5064912;28;20232;-38
2024/01/13 02:38:45;;;;;;;0.00;0.00;;;6.20;70.60;;;;;;5084251;28;20247;-38
2024/01/13 02:41:14;;;;;;;0.00;0.00;;;6.20;70.60;;;;;;5083433;28;20211;-38
2024/01/13 02:43:46;;;;;;;0.00;0.00;;;6.20;70.60;;;;;;5079661;28;20290;-36
2024/01/13 02:46:16;;;;;;;0.00;0.00;;;6.20;70.60;;;;;;5085040;28;20214;-36
2024/01/13 02:48:45;;;;;;;0.00;0.00;;;6.20;70.60;;;;;;5079429;28;20231;-36
2024/01/13 02:51:15;;;;;;;0.00;0.00;;;6.20;70.60;;;;;;5082628;28;20198;-36
2024/01/13 02:53:47;;;;;;;0.00;0.00;;;6.20;71.40;;;;;;5087143;28;20691;-36
2024/01/13 02:56:16;;;;;;;0.00;0.00;;;6.20;70.60;;;;;;5080870;28;20238;-37
2024/01/13 02:58:47;;;;;;;0.00;0.00;;;6.20;70.60;;;;;;5084056;28;20214;-37
2024/01/13 03:01:17;;;;;;;0.00;0.00;;;6.20;70.60;;;;;;5086285;28;20265;-37
2024/01/13 03:03:49;;;;;;;0.00;0.00;;;6.20;70.60;;;;;;5078252;28;20313;-36
2024/01/13 03:06:21;;;;;;;0.00;0.00;;;6.20;70.60;;;;;;5086575;28;20262;-35
2024/01/13 03:08:52;;;;;;;0.00;0.00;;;6.20;70.70;;;;;;5069591;28;20343;-37
2024/01/13 03:11:22;;;;;;;0.00;0.00;;;6.20;70.70;;;;;;5088422;28;20199;-35
2024/01/13 03:13:53;;;;;;;0.00;0.00;;;6.30;70.90;;;;;;5081681;28;20223;-35
2024/01/13 03:16:21;;;;;;;0.00;0.00;;;6.30;70.80;;;;;;5075521;28;20199;-36
2024/01/13 03:18:48;;;;;;;0.00;0.00;;;6.30;70.80;;;;;;5068676;28;20217;-35
2024/01/13 03:21:18;;;;;;;0.00;0.00;;;6.30;70.80;;;;;;5082136;28;20218;-36
2024/01/13 03:23:49;;;;;;;0.00;0.00;;;6.30;70.80;;;;;;5085297;28;20222;-37
2024/01/13 03:26:17;;;;;;;0.00;0.00;;;6.30;70.70;;;;;;5078202;28;20203;-36
2024/01/13 03:28:44;;;;;;;0.00;0.00;;;6.30;70.70;;;;;;5085310;28;20222;-36
2024/01/13 03:31:15;;;;;;;0.00;0.00;;;6.30;70.70;;;;;;5078708;28;20229;-36
2024/01/13 03:33:49;;;;;;;0.00;0.00;;;6.30;70.70;;;;;;5085860;28;20210;-39
2024/01/13 03:36:19;;;;;;;0.00;0.00;;;6.30;70.70;;;;;;5086994;28;20202;-37
2024/01/13 03:38:48;;;;;;;0.00;0.00;;;6.30;70.70;;;;;;5084964;28;20214;-37
2024/01/13 03:41:22;;;;;;;0.00;0.00;;;6.30;70.80;;;;;;5086582;28;20276;-36
2024/01/13 03:43:52;;;;;;;0.00;0.00;;;6.30;70.80;;;;;;5067108;28;20203;-37
2024/01/13 03:46:19;;;;;;;0.00;0.00;;;6.30;70.90;;;;;;5082635;28;20325;-36
2024/01/13 03:48:49;;;;;;;0.00;0.00;;;6.30;70.80;;;;;;5085481;28;20223;-35
2024/01/13 03:51:19;;;;;;;0.00;0.00;;;6.30;70.90;;;;;;5085667;28;20641;-35
2024/01/13 03:53:46;;;;;;;0.00;0.00;;;6.30;70.80;;;;;;5083646;28;20618;-36
2024/01/13 03:56:14;;;;;;;0.00;0.00;;;6.30;70.90;;;;;;5079936;28;20223;-37
2024/01/13 03:58:41;;;;;;;0.00;0.00;;;6.30;70.80;;;;;;5084620;28;20711;-36
2024/01/13 04:01:14;;;;;;;0.00;0.00;;;6.30;70.70;;;;;;5076674;28;20199;-35
2024/01/13 04:03:44;;;;;;;0.00;0.00;;;6.30;70.70;;;;;;5086565;28;20719;-36
2024/01/13 04:06:12;;;;;;;0.00;0.00;;;6.30;71.50;;;;;;5085255;28;20284;-36
2024/01/13 04:08:39;;;;;;;0.00;0.00;;;6.30;70.80;;;;;;5086112;28;20607;-37
2024/01/13 04:11:10;;;;;;;0.00;0.00;;;6.30;70.90;;;;;;5087412;28;20230;-36
2024/01/13 04:13:40;;;;;;;0.00;0.00;;;6.30;70.80;;;;;;5077058;28;20229;-34
2024/01/13 04:16:08;;;;;;;0.00;0.00;;;6.30;70.80;;;;;;5085227;28;20214;-35
2024/01/13 04:18:38;;;;;;;0.00;0.00;;;6.30;70.90;;;;;;5085210;28;20199;-25
2024/01/13 04:21:08;;;;;;;0.00;0.00;;;6.30;70.90;;;;;;5076527;28;20221;-25
2024/01/13 04:23:52;;;;;;;0.00;0.00;;;6.30;70.90;;;;;;5076955;28;20291;-35
2024/01/13 04:26:21;;;;;;;0.00;0.00;;;6.30;70.90;;;;;;5085495;28;20206;-35
2024/01/13 04:28:48;;;;;;;0.00;0.00;;;6.30;70.90;;;;;;5085755;28;20210;-25
2024/01/13 04:31:15;;;;;;;0.00;0.00;;;6.30;70.90;;;;;;5084723;28;20682;-25
2024/01/13 04:33:43;;;;;;;0.00;0.00;;;6.30;70.90;;;;;;5084852;28;20207;-25
2024/01/13 04:36:20;;;;;;;0.00;0.00;;;6.30;70.90;;;;;;5084825;28;20229;-25
2024/01/13 04:38:47;;;;;;;0.00;0.00;;;6.30;70.80;;;;;;5082207;28;20210;-25
2024/01/13 04:41:14;;;;;;;0.00;0.00;;;6.30;70.80;;;;;;5083294;28;20205;-25
2024/01/13 04:43:42;;;;;;;0.00;0.00;;;6.30;70.80;;;;;;5086372;28;20679;-25
2024/01/13 04:46:10;;;;;;;0.00;0.00;;;6.30;70.70;;;;;;5084024;28;20798;-25
2024/01/13 04:48:43;;;;;;;0.00;0.00;;;6.30;70.70;;;;;;5082635;28;20226;-25
2024/01/13 04:51:10;;;;;;;0.00;0.00;;;6.30;70.90;;;;;;5082998;28;20329;-25
2024/01/13 04:53:38;;;;;;;0.00;0.00;;;6.30;70.80;;;;;;5085120;28;20207;-25
2024/01/13 04:56:07;;;;;;;0.00;0.00;;;6.30;70.90;;;;;;5085243;28;20211;-25
2024/01/13 04:58:35;;;;;;;0.00;0.00;;;6.30;70.90;;;;;;5083009;28;20211;-25
2024/01/13 05:01:04;;;;;;;0.00;0.00;;;6.30;70.90;;;;;;5087442;28;20205;-25
2024/01/13 05:03:32;;;;;;;0.00;0.00;;;6.30;70.90;;;;;;5085761;28;20295;-25
2024/01/13 05:05:59;;;;;;;0.00;0.00;;;6.30;70.90;;;;;;5086845;28;20251;-25
2024/01/13 05:08:29;;;;;;;0.00;0.00;;;6.30;71.00;;;;;;5085911;28;20280;-25
2024/01/13 05:10:56;;;;;;;0.00;0.00;;;6.30;70.90;;;;;;5083287;28;20280;-25
2024/01/13 05:13:25;;;;;;;0.00;0.00;;;6.30;70.90;;;;;;5080703;28;20623;-25
2024/01/13 05:15:55;;;;;;;0.00;0.00;;;6.30;70.90;;;;;;5081132;28;20203;-25
2024/01/13 05:18:27;;;;;;;0.00;0.00;;;6.40;71.00;;;;;;5083222;28;20230;-25
2024/01/13 05:20:54;;;;;;;0.00;0.00;;;6.30;70.90;;;;;;5081994;28;20207;-25
2024/01/13 05:23:21;;;;;;;0.00;0.00;;;6.30;70.90;;;;;;5086803;28;20254;-25
2024/01/13 05:25:48;;;;;;;0.00;0.00;;;6.30;70.90;;;;;;5087780;28;20214;-25
2024/01/13 05:28:16;;;;;;;0.00;0.00;;;6.30;70.90;;;;;;5088212;28;20214;-25
2024/01/13 05:30:43;;;;;;;0.00;0.00;;;6.30;70.90;;;;;;5079311;28;20238;-25
2024/01/13 05:33:14;;;;;;;0.00;0.00;;;6.30;70.80;;;;;;5088692;28;20305;-25
2024/01/13 05:35:44;;;;;;;0.00;0.00;;;6.30;70.90;;;;;;5089403;28;20653;-25
2024/01/13 05:38:12;;;;;;;0.00;0.00;;;6.40;70.90;;;;;;5086040;28;20190;-25
2024/01/13 05:40:44;;;;;;;0.00;0.00;;;6.40;70.90;;;;;;5089521;28;20218;-25
2024/01/13 05:43:14;;;;;;;0.00;0.00;;;6.30;70.80;;;;;;5082992;28;20293;-25
2024/01/13 05:45:41;;;;;;;0.00;0.00;;;6.30;70.80;;;;;;5080548;28;20202;-25
2024/01/13 05:48:08;;;;;;;0.00;0.00;;;6.30;70.80;;;;;;5082734;28;20219;-25
2024/01/13 05:50:36;;;;;;;0.00;0.00;;;6.30;70.80;;;;;;5085733;28;20223;-25
2024/01/13 05:53:04;;;;;;;0.00;0.00;;;6.30;70.80;;;;;;5064433;28;20205;-25
2024/01/13 05:55:31;;;;;;;0.00;0.00;;;6.30;70.90;;;;;;5081190;28;20203;-25
2024/01/13 05:57:58;;;;;;;0.00;0.00;;;6.30;70.90;;;;;;5080827;28;20218;-25
2024/01/13 06:00:29;;;;;;;0.00;0.00;;;6.30;70.90;;;;;;5079902;28;20207;-25
2024/01/13 06:02:57;;;;;;;0.00;0.00;;;6.30;70.90;;;;;;5075324;28;20458;-25
2024/01/13 06:05:31;;;;;;;0.00;0.00;;;6.30;71.70;;;;;;5079578;28;20199;-25
2024/01/13 06:07:58;;;;;;;0.00;0.00;;;6.30;70.90;;;;;;5082186;28;20678;-25
2024/01/13 06:10:29;;;;;;;0.00;0.00;;;6.30;70.90;;;;;;5083867;28;20211;-25
2024/01/13 06:12:59;;;;;;;0.00;0.00;;;6.30;70.90;;;;;;5067368;28;20195;-25
2024/01/13 06:15:26;;;;;;;0.00;0.00;;;6.30;70.90;;;;;;5085920;28;20696;-25
2024/01/13 06:17:56;;;;;;;0.00;0.00;;;6.30;71.00;;;;;;5083353;28;20196;-25
2024/01/13 06:20:23;;;;;;;0.00;0.00;;;6.30;71.00;;;;;;5081634;28;20201;-25
2024/01/13 06:22:51;;;;;;;0.00;0.00;;;6.30;71.00;;;;;;5075009;28;20204;-25
2024/01/13 06:25:18;;;;;;;0.00;0.00;;;6.30;71.10;;;;;;5082611;28;20236;-25
2024/01/13 06:27:45;;;;;;;0.00;0.00;;;6.30;71.10;;;;;;5083946;28;20211;-25
2024/01/13 06:30:12;;;;;;;0.00;0.00;;;6.30;71.10;;;;;;5082037;28;20217;-25
2024/01/13 06:32:43;;;;;;;0.00;0.00;;;6.30;71.10;;;;;;5084237;28;20239;-25
2024/01/13 06:35:11;;;;;;;0.00;0.00;;;6.30;71.00;;;;;;5081463;28;20195;-25
2024/01/13 06:37:38;;;;;;;0.00;0.00;;;6.30;71.00;;;;;;5077827;28;20207;-25
2024/01/13 06:40:06;;;;;;;0.00;0.00;;;6.30;71.00;;;;;;5078134;28;20681;-25
2024/01/13 06:42:35;;;;;;;0.00;0.00;;;6.30;71.00;;;;;;5082794;28;20542;-26
2024/01/13 06:45:05;;;;;;;0.00;0.00;;;6.30;71.00;;;;;;5083866;28;20199;-25
2024/01/13 06:47:32;;;;;;;0.00;0.00;;;6.30;71.00;;;;;;5082582;28;20195;-25
2024/01/13 06:50:01;;;;;;;0.00;0.00;;;6.30;70.90;;;;;;5079122;28;20268;-25
2024/01/13 06:52:28;;;;;;;0.00;0.00;;;6.30;70.90;;;;;;5088195;28;20289;-25
2024/01/13 06:54:58;;;;;;;0.00;0.00;;;6.30;71.00;;;;;;5085646;28;20226;-25
2024/01/13 06:57:27;;;;;;;0.00;0.00;;;6.30;71.10;;;;;;5083761;28;20669;-25
2024/01/13 06:59:59;;;;;;;0.00;0.00;;;6.30;71.20;;;;;;5076410;28;20207;-35
2024/01/13 07:02:26;;;;;;;0.00;0.00;;;6.30;71.20;;;;;;5079703;28;20233;-35
2024/01/13 07:05:00;;;;;;;0.00;0.00;;;6.30;71.10;;;;;;5071596;28;20290;-35
2024/01/13 07:07:27;;;;;;;0.00;0.00;;;6.30;71.10;;;;;;5075035;28;20239;-34
2024/01/13 07:09:57;;;;;;;0.00;0.00;;;6.40;71.10;;;;;;5077064;28;20226;-35
2024/01/13 07:12:24;;;;;;;0.00;0.00;;;6.40;71.10;;;;;;5076926;28;20226;-34
2024/01/13 07:14:54;;;;;;;0.00;0.00;;;6.40;71.10;;;;;;5081977;28;20213;-35
2024/01/13 07:17:21;;;;;;;0.00;0.00;;;6.40;71.10;;;;;;5085527;28;20201;-35
2024/01/13 07:19:51;;;;;;;0.00;0.00;;;6.40;71.20;;;;;;5083697;28;20226;-35
2024/01/13 07:22:19;;;;;;;0.00;0.00;;;6.40;71.10;;;;;;5084229;28;20230;-34
2024/01/13 07:24:48;;;;;;;0.00;0.00;;;6.40;71.10;;;;;;5084634;28;20221;-34
2024/01/13 07:27:15;;;;;;;0.00;0.00;;;6.40;71.10;;;;;;5083027;28;20711;-35
2024/01/13 07:29:42;;;;;;;0.00;0.00;;;6.40;71.10;;;;;;5079458;28;20214;-36
2024/01/13 07:32:21;;;;;;;0.00;0.00;;;6.40;71.00;;;;;;5080706;28;20710;-35
2024/01/13 07:34:49;;;;;;;0.00;0.00;;;6.30;70.90;;;;;;5082305;28;20245;-35
2024/01/13 07:37:16;;;;;;;0.00;0.00;;;6.30;70.90;;;;;;5081095;28;20211;-36
2024/01/13 07:39:46;;;;;;;0.00;0.00;;;6.30;71.00;;;;;;5079304;28;20329;-34
2024/01/13 07:42:17;;;;;;;0.00;0.00;;;6.30;71.00;;;;;;5079006;28;20203;-35
2024/01/13 07:44:45;;;;;;;0.00;0.00;;;6.30;71.20;;;;;;5079856;28;20210;-36
2024/01/13 07:47:12;;;;;;;0.00;0.00;;;6.30;71.00;;;;;;5077167;28;20223;-35
2024/01/13 07:49:40;;;;;;;0.00;0.00;;;6.30;71.10;;;;;;5079474;28;20223;-34
2024/01/13 07:52:12;;;;;;;0.00;0.00;;;6.30;71.10;;;;;;5075842;28;20222;-35
2024/01/13 07:54:39;;;;;;;0.00;0.00;;;6.30;71.10;;;;;;5083913;28;20229;-35
2024/01/13 07:57:12;;;;;;;0.00;0.00;;;6.30;71.10;;;;;;5077316;28;20624;-35
2024/01/13 07:59:40;;;;;;;0.00;0.00;;;6.30;71.20;;;;;;5073751;28;20612;-35
2024/01/13 08:02:07;;;;;;;0.00;0.00;;;6.30;71.20;;;;;;5083099;28;20200;-35
2024/01/13 08:04:35;;;;;;;0.00;0.00;;;6.30;71.20;;;;;;5086048;28;20209;-35
2024/01/13 08:07:02;;;;;;;0.00;0.00;;;6.30;71.20;;;;;;5082307;28;20319;-35
2024/01/13 08:09:30;;;;;;;0.00;0.00;;;6.30;71.20;;;;;;5081532;28;20197;-34
2024/01/13 08:11:58;;;;;;;0.00;0.00;;;6.30;71.20;;;;;;5083343;28;20590;-35
2024/01/13 08:14:25;;;;;;;0.00;0.00;;;6.30;71.20;;;;;;5079365;28;20199;-34
2024/01/13 08:16:55;;;;;;;0.00;0.00;;;6.30;71.00;;;;;;5072169;28;20207;-35
2024/01/13 08:19:24;;;;;;;0.00;0.00;;;6.30;71.00;;;;;;5075886;28;20218;-34
2024/01/13 08:21:52;;;;;;;0.00;0.00;;;6.30;71.10;;;;;;5076764;28;20211;-36
2024/01/13 08:24:22;;;;;;;0.00;0.00;;;6.30;71.10;;;;;;5075605;28;20206;-35
2024/01/13 08:26:54;;;;;;;0.00;0.00;;;6.30;71.00;;;;;;5060782;28;20251;-35
2024/01/13 08:29:21;;;;;;;0.00;0.00;;;6.30;71.00;;;;;;5076634;28;20674;-36
2024/01/13 08:31:50;;;;;;;0.00;0.00;;;6.30;71.00;;;;;;5070210;28;20231;-35
2024/01/13 08:34:17;;;;;;;0.00;0.00;;;6.30;71.10;;;;;;5077717;28;20192;-36
2024/01/13 08:36:45;;;;;;;0.00;0.00;;;6.30;71.80;;;;;;5076776;28;20196;-25
2024/01/13 08:39:14;;;;;;;0.00;0.00;;;6.20;71.00;;;;;;5075075;28;20303;-26
2024/01/13 08:41:41;;;;;;;0.00;0.00;;;6.20;71.00;;;;;;5077037;28;20207;-26
2024/01/13 08:44:09;;;;;;;0.00;0.00;;;6.20;71.00;;;;;;5077163;28;20301;-26
2024/01/13 08:46:39;;;;;;;0.00;0.00;;;6.20;71.10;;;;;;5071262;28;20219;-26
2024/01/13 08:49:07;;;;;;;0.00;0.00;;;6.30;71.20;;;;;;5077968;28;20588;-26
2024/01/13 08:51:34;;;;;;;0.00;0.00;;;6.20;71.20;;;;;;5079254;28;20281;-25
2024/01/13 08:54:13;;;;;;;0.00;0.00;;;6.20;71.20;;;;;;5083019;28;20210;-26
2024/01/13 08:56:41;;;;;;;0.00;0.00;;;6.30;71.20;;;;;;5088057;28;20259;-25
2024/01/13 08:59:14;;;;;;;0.00;0.00;;;6.20;71.20;;;;;;5081116;28;20195;-25
2024/01/13 09:01:41;;;;;;;0.00;0.00;;;6.20;71.20;;;;;;5079953;28;20609;-26
2024/01/13 09:04:10;;;;;;;0.00;0.00;;;6.30;71.20;;;;;;5084401;28;20693;-26
2024/01/13 09:06:40;;;;;;;0.00;0.00;;;6.20;71.20;;;;;;5078083;28;20246;-26
2024/01/13 09:09:09;;;;;;;0.00;0.00;;;6.30;71.30;;;;;;5086683;28;20609;-26
2024/01/13 09:11:37;;;;;;;0.00;0.00;;;6.30;71.20;;;;;;5081138;28;20246;-26
2024/01/13 09:14:13;;;;;;;0.00;0.00;;;6.30;71.20;;;;;;5073643;28;20227;-25
2024/01/13 09:16:46;;;;;;;0.00;0.00;;;6.30;71.30;;;;;;5086613;28;20260;-25
2024/01/13 09:19:14;;;;;;;0.00;0.00;;;6.30;71.20;;;;;;5079875;28;20217;-26
2024/01/13 09:21:42;;;;;;;0.00;0.00;;;6.30;71.20;;;;;;5084157;28;20632;-26
2024/01/13 09:24:13;;;;;;;0.00;0.00;;;6.30;71.20;;;;;;5084093;28;20781;-26
2024/01/13 09:26:42;;;;;;;0.00;0.00;;;6.30;71.20;;;;;;5081598;28;20207;-25
2024/01/13 09:29:16;;;;;;;0.00;0.00;;;6.30;71.20;;;;;;5083470;28;20967;-25
2024/01/13 09:31:46;;;;;;;0.00;0.00;;;6.30;71.20;;;;;;5082395;28;20752;-26
2024/01/13 09:34:18;;;;;;;0.00;0.00;;;6.30;71.40;;;;;;5078774;28;20285;-25
2024/01/13 09:36:50;;;;;;;0.00;0.00;;;6.30;71.10;;;;;;5085565;28;20211;-26
2024/01/13 09:39:20;;;;;;;0.00;0.00;;;6.30;71.10;;;;;;5082958;28;20217;-25
2024/01/13 09:41:51;;;;;;;0.00;0.00;;;6.20;71.10;;;;;;5074068;28;20649;-25
2024/01/13 09:44:22;;;;;;;0.00;0.00;;;6.20;71.10;;;;;;5081859;28;20206;-26
2024/01/13 09:46:52;;;;;;;0.00;0.00;;;6.20;71.10;;;;;;5087807;28;20925;-26
2024/01/13 09:49:24;;;;;;;0.00;0.00;;;6.30;71.20;;;;;;5086153;28;20301;-26
2024/01/13 09:51:52;;;;;;;0.00;0.00;;;6.20;71.00;;;;;;5086155;28;20225;-26
2024/01/13 09:54:23;;;;;;;0.00;0.00;;;6.20;71.10;;;;;;5086910;28;20297;-26
2024/01/13 09:56:52;;;;;;;0.00;0.00;;;6.20;71.20;;;;;;5080068;28;20218;-26
2024/01/13 09:59:22;;;;;;;0.00;0.00;;;6.20;71.30;;;;;;5084896;28;20199;-26
2024/01/13 10:01:52;;;;;;;0.00;0.00;;;6.20;71.30;;;;;;5079394;28;20195;-26
2024/01/13 10:04:22;;;;;;;0.00;0.00;;;6.20;71.30;;;;;;5086349;28;20214;-26
2024/01/13 10:06:49;;;;;;;0.00;0.00;;;6.30;71.40;;;;;;5085398;28;20234;-26
2024/01/13 10:09:19;;;;;;;0.00;0.00;;;6.30;71.40;;;;;;5082030;28;20209;-26
2024/01/13 10:12:07;;;;;;;0.00;0.00;;;6.30;71.40;;;;;;5068018;28;20219;-26
2024/01/13 10:14:42;;;;;;;0.00;0.00;;;6.30;71.50;;;;;;5081770;28;20221;-26
2024/01/13 10:17:11;;;;;;;0.00;0.00;;;6.30;71.40;;;;;;5079974;28;20199;-26
2024/01/13 10:19:43;;;;;;;0.00;0.00;;;6.30;71.50;;;;;;5080979;28;20291;-26
2024/01/13 10:22:12;;;;;;;0.00;0.00;;;6.30;71.40;;;;;;5077197;28;20211;-26
2024/01/13 10:24:40;;;;;;;0.00;0.00;;;6.40;71.50;;;;;;5078242;28;20233;-27
2024/01/13 10:27:10;;;;;;;0.00;0.00;;;6.40;71.50;;;;;;5079329;28;20233;-26
2024/01/13 10:29:42;;;;;;;0.00;0.00;;;6.40;71.40;;;;;;5079327;28;20289;-26
2024/01/13 10:32:12;;;;;;;0.00;0.00;;;6.40;71.40;;;;;;5078713;28;20223;-26
2024/01/13 10:34:50;;;;;;;0.00;0.00;;;6.40;71.40;;;;;;5088947;28;20276;-26
2024/01/13 10:37:20;;;;;;;0.00;0.00;;;6.40;71.40;;;;;;5081901;28;20206;-26
2024/01/13 10:39:49;;;;;;;0.00;0.00;;;6.40;71.40;;;;;;5086930;28;20215;-37
2024/01/13 10:42:20;;;;;;;0.00;0.00;;;6.40;71.30;;;;;;5081668;28;20215;-39
2024/01/13 10:44:56;;;;;;;0.00;0.00;;;6.40;71.30;;;;;;5082605;28;20219;-38
2024/01/13 10:47:31;;;;;;;0.00;0.00;;;6.40;71.30;;;;;;5079793;28;20739;-39
2024/01/13 10:49:59;;;;;;;0.00;0.00;;;6.40;71.30;;;;;;5086544;28;20198;-39
2024/01/13 10:52:32;;;;;;;0.00;0.00;;;6.40;71.30;;;;;;5082505;28;20233;-38
2024/01/13 10:55:04;;;;;;;0.00;0.00;;;6.40;71.30;;;;;;5077697;28;20210;-39
2024/01/13 10:57:35;;;;;;;0.00;0.00;;;6.40;71.40;;;;;;5070545;28;20188;-37
2024/01/13 11:00:06;;;;;;;0.00;0.00;;;6.40;71.50;;;;;;5080100;28;20212;-37
2024/01/13 11:02:39;;;;;;;0.00;0.00;;;6.40;71.40;;;;;;5082751;28;20626;-38
2024/01/13 11:05:08;;;;;;;0.00;0.00;;;6.40;71.30;;;;;;5078853;28;20213;-39
2024/01/13 11:07:36;;;;;;;0.00;0.00;;;6.40;71.30;;;;;;5080621;28;20231;-37
2024/01/13 11:10:11;;;;;;;0.00;0.00;;;6.40;71.30;;;;;;5084098;28;20217;-37
2024/01/13 11:12:46;;;;;;;0.00;0.00;;;6.40;71.30;;;;;;5083393;28;20233;-38
2024/01/13 11:15:25;;;;;;;0.00;0.00;;;6.40;71.40;;;;;;5084435;28;20199;-39
2024/01/13 11:17:55;;;;;;;0.00;0.00;;;6.40;71.30;;;;;;5080520;28;20195;-38
2024/01/13 11:20:22;;;;;;;0.00;0.00;;;6.40;71.30;;;;;;5087795;28;20222;-37
2024/01/13 11:23:01;;;;;;;0.00;0.00;;;6.40;71.30;;;;;;5082517;28;20191;-39
2024/01/13 11:25:29;;;;;;;0.00;0.00;;;6.40;71.30;;;;;;5068866;28;20200;-38
2024/01/13 11:28:04;;;;;;;0.00;0.00;;;6.40;71.20;;;;;;5082109;28;20214;-38
2024/01/13 11:30:37;;;;;;;0.00;0.00;;;6.40;71.30;;;;;;5087651;28;20504;-39
2024/01/13 11:33:10;;;;;;;0.00;0.00;;;6.40;71.30;;;;;;5076005;28;20206;-36
2024/01/13 11:35:39;;;;;;;0.00;0.00;;;6.40;71.40;;;;;;5083317;28;21059;-36
2024/01/13 11:38:09;;;;;;;0.00;0.00;;;6.40;71.30;;;;;;5081634;28;20770;-36
2024/01/13 11:40:47;;;;;;;0.00;0.00;;;6.40;71.40;;;;;;5072709;28;22986;-35
2024/01/13 11:43:24;;;;;;;0.00;0.00;;;6.40;71.40;;;;;;5077126;28;20281;-37
2024/01/13 11:45:52;;;;;;;0.00;0.00;;;6.50;71.50;;;;;;5073951;28;20680;-37
2024/01/13 11:48:39;;;;;;;0.00;0.00;;;6.50;71.50;;;;;;5075709;28;20202;-36
2024/01/13 11:51:12;;;;;;;0.00;0.00;;;6.50;71.50;;;;;;5078779;28;20703;-37
2024/01/13 11:53:45;;;;;;;0.00;0.00;;;6.50;71.40;;;;;;5072802;28;20202;-36
2024/01/13 11:56:13;;;;;;;0.00;0.00;;;6.50;71.50;;;;;;5067174;28;20206;-36
2024/01/13 11:58:42;;;;;;;0.00;0.00;;;6.50;71.40;;;;;;5065414;28;20236;-35
2024/01/13 12:01:11;;;;;;;0.00;0.00;;;6.50;71.40;;;;;;5075258;28;20280;-35
2024/01/13 12:03:44;;;;;;;0.00;0.00;;;6.50;71.40;;;;;;5066958;28;22245;-36
2024/01/13 12:06:13;;;;;;;0.00;0.00;;;6.50;71.40;;;;;;5077466;28;20357;-36
2024/01/13 12:08:41;;;;;;;0.00;0.00;;;6.50;71.40;;;;;;5077155;28;20204;-35
2024/01/13 12:11:10;;;;;;;0.00;0.00;;;6.50;71.50;;;;;;5070664;28;20229;-36
2024/01/13 12:13:37;;;;;;;0.00;0.00;;;6.50;71.40;;;;;;5072327;28;20203;-35
2024/01/13 12:16:08;;;;;;;0.00;0.00;;;6.60;71.40;;;;;;5075067;28;20370;-36
2024/01/13 12:18:38;;;;;;;0.00;0.00;;;6.60;72.10;;;;;;5080878;28;20215;-36
2024/01/13 12:21:06;;;;;;;0.00;0.00;;;6.60;71.40;;;;;;5086945;28;20762;-36
2024/01/13 12:23:34;;;;;;;0.00;0.00;;;6.50;71.30;;;;;;5077658;28;20867;-37
2024/01/13 12:26:02;;;;;;;0.00;0.00;;;6.60;71.40;;;;;;5075824;28;20842;-36
2024/01/13 12:28:39;;;;;;;0.00;0.00;;;6.60;71.40;;;;;;5079454;28;20575;-37
2024/01/13 12:31:07;;;;;;;0.00;0.00;;;6.60;71.40;;;;;;5082873;28;20219;-35
2024/01/13 12:33:37;;;;;;;0.00;0.00;;;6.60;71.50;;;;;;5080688;28;20195;-36
2024/01/13 12:36:13;;;;;;;0.00;0.00;;;6.60;71.60;;;;;;5073005;28;20210;-36
2024/01/13 12:38:41;;;;;;;0.00;0.00;;;6.60;71.50;;;;;;5073227;28;20202;-36
2024/01/13 12:41:09;;;;;;;0.00;0.00;;;6.60;71.50;;;;;;5075287;28;20203;-35
2024/01/13 12:43:40;;;;;;;0.00;0.00;;;6.60;71.50;;;;;;5057571;28;20216;-36
2024/01/13 12:46:08;;;;;;;0.00;0.00;;;6.60;71.40;;;;;;5071868;28;20195;-36
2024/01/13 12:48:38;;;;;;;0.00;0.00;;;6.60;71.40;;;;;;5080548;28;20203;-36
2024/01/13 12:51:19;;;;;;;0.00;0.00;;;6.60;71.50;;;;;;5073981;28;20576;-36
2024/01/13 12:53:48;;;;;;;0.00;0.00;;;6.60;71.40;;;;;;5084735;28;20294;-35
2024/01/13 12:56:17;;;;;;;0.00;0.00;;;6.60;71.50;;;;;;5083220;28;20742;-35
2024/01/13 12:58:51;;;;;;;0.00;0.00;;;6.60;71.50;;;;;;5083123;28;20191;-36
2024/01/13 13:01:18;;;;;;;0.00;0.00;;;6.60;71.10;;;;;;5082345;28;20217;-36
2024/01/13 13:03:48;;;;;;;0.00;0.00;;;6.60;71.20;;;;;;5072080;28;20315;-36
2024/01/13 13:06:15;;;;;;;0.00;0.00;;;6.60;71.10;;;;;;5086758;28;20737;-36
2024/01/13 13:08:47;;;;;;;0.00;0.00;;;6.60;71.20;;;;;;5078212;28;20217;-36
2024/01/13 13:11:17;;;;;;;0.00;0.00;;;6.50;71.20;;;;;;5082247;28;20560;-36